Time;durP1;ratioP1;P1;durP2;ratioP2;P2;SDS_P1;SDS_P2;PMS_P1;PMS_P2;Temp;Humidity;BMP_temperature;BMP_pressure;BME280_temperature;BME280_humidity;BME280_pressure;Samples;Min_cycle;Max_cycle;Signal;HPM_P1;HPM_P2
2022/10/17 00:00:24;;;;;;;23.53;7.50;;;;;;;16.02;82.25;100813.91;4990672;28;20421;-72
2022/10/17 00:02:49;;;;;;;20.55;8.20;;;;;;;16.01;82.15;100812.25;4980046;28;20408;-72
2022/10/17 00:05:14;;;;;;;10.93;5.73;;;;;;;16.01;82.16;100816.91;4967762;28;20403;-72
2022/10/17 00:07:40;;;;;;;16.03;3.87;;;;;;;15.99;82.16;100819.94;4989302;28;20407;-72
2022/10/17 00:10:06;;;;;;;13.25;3.55;;;;;;;15.98;82.26;100826.47;4991657;28;20394;-72
2022/10/17 00:12:33;;;;;;;15.10;3.58;;;;;;;15.98;82.34;100828.38;4981336;28;20803;-72
2022/10/17 00:14:58;;;;;;;4.20;3.08;;;;;;;15.94;82.19;100835.47;4989962;28;20422;-72
2022/10/17 00:17:24;;;;;;;9.33;3.07;;;;;;;15.92;82.54;100845.88;4992786;28;20406;-72
2022/10/17 00:19:49;;;;;;;7.45;3.00;;;;;;;15.91;82.60;100841.50;4992662;28;20413;-72
2022/10/17 00:22:14;;;;;;;14.03;3.10;;;;;;;15.89;82.39;100846.41;4982330;28;20443;-72
2022/10/17 00:24:40;;;;;;;10.67;3.40;;;;;;;15.88;82.33;100853.78;4989106;28;20461;-72
2022/10/17 00:27:05;;;;;;;10.05;3.03;;;;;;;15.84;82.13;100858.16;4979462;28;20466;-71
2022/10/17 00:29:30;;;;;;;15.87;3.70;;;;;;;15.86;81.81;100860.63;4990504;28;20969;-72
2022/10/17 00:31:56;;;;;;;9.20;2.90;;;;;;;15.86;82.04;100863.38;4992137;28;20412;-72
2022/10/17 00:34:22;;;;;;;20.67;3.63;;;;;;;15.82;82.24;100863.06;4985944;28;21006;-72
2022/10/17 00:36:47;;;;;;;9.13;2.80;;;;;;;15.80;81.97;100850.78;4992545;28;20545;-72
2022/10/17 00:39:12;;;;;;;8.30;2.87;;;;;;;15.79;82.15;100857.31;4988148;28;20415;-72
2022/10/17 00:41:38;;;;;;;12.00;2.78;;;;;;;15.75;82.19;100856.22;4992632;28;20503;-71
2022/10/17 00:44:29;;;;;;;7.97;2.80;;;;;;;15.71;81.98;100858.66;4979873;28;20521;-72
2022/10/17 00:47:00;;;;;;;8.75;2.80;;;;;;;15.68;81.94;100866.56;4983550;28;20892;-72
2022/10/17 00:49:29;;;;;;;16.15;3.65;;;;;;;15.65;81.80;100857.00;4992566;28;20403;-72
2022/10/17 00:51:59;;;;;;;9.30;2.63;;;;;;;15.64;81.79;100863.59;4987968;28;20973;-71
2022/10/17 00:54:30;;;;;;;7.63;2.72;;;;;;;15.65;81.64;100864.38;4992159;28;20541;-72
2022/10/17 00:56:56;;;;;;;11.38;2.55;;;;;;;15.64;81.89;100863.59;4989918;28;20398;-72
2022/10/17 00:59:23;;;;;;;9.02;2.67;;;;;;;15.64;81.71;100869.06;4991224;28;20414;-71
2022/10/17 01:01:59;;;;;;;3.40;2.30;;;;;;;15.63;81.95;100866.56;4974183;28;20426;-72
2022/10/17 01:04:25;;;;;;;17.42;2.83;;;;;;;15.57;81.80;100869.31;4991011;28;20538;-72
2022/10/17 01:06:50;;;;;;;17.10;3.10;;;;;;;15.52;82.00;100861.06;4991627;28;20505;-72
2022/10/17 01:09:15;;;;;;;7.63;3.07;;;;;;;15.48;81.93;100870.88;4982907;28;20412;-71
2022/10/17 01:12:04;;;;;;;7.27;2.40;;;;;;;15.41;81.76;100866.75;4985278;28;20422;-72
2022/10/17 01:14:49;;;;;;;11.88;2.72;;;;;;;15.35;81.97;100873.25;4986467;28;20420;-72
2022/10/17 01:17:37;;;;;;;13.70;3.13;;;;;;;15.39;81.92;100869.72;4981646;28;20811;-72
2022/10/17 01:20:20;;;;;;;8.80;2.20;;;;;;;15.36;82.01;100866.72;4984567;28;20579;-72
2022/10/17 01:22:57;;;;;;;29.38;3.15;;;;;;;15.36;81.93;100875.72;4984347;28;20985;-72
2022/10/17 01:25:35;;;;;;;11.18;2.85;;;;;;;15.34;81.70;100877.91;4988261;28;20410;-72
2022/10/17 01:28:22;;;;;;;17.00;3.33;;;;;;;15.32;81.98;100874.59;4988575;28;20426;-72
2022/10/17 01:30:57;;;;;;;10.23;2.40;;;;;;;15.31;82.00;100875.69;4991940;28;20407;-72
2022/10/17 01:33:31;;;;;;;15.48;3.53;;;;;;;15.31;81.75;100867.50;4986150;28;20408;-72
2022/10/17 01:36:16;;;;;;;9.85;3.00;;;;;;;15.31;81.63;100872.16;4991229;28;20413;-72
2022/10/17 01:38:47;;;;;;;15.38;2.70;;;;;;;15.29;81.65;100877.88;4989662;28;20735;-72
2022/10/17 01:41:43;;;;;;;9.13;2.58;;;;;;;15.28;81.66;100864.50;4988659;28;20425;-72
2022/10/17 01:44:14;;;;;;;9.52;2.65;;;;;;;15.32;81.64;100862.84;4986800;28;20423;-72
2022/10/17 01:46:45;;;;;;;12.65;2.88;;;;;;;15.33;81.54;100859.06;4985994;28;20828;-72
2022/10/17 01:49:14;;;;;;;13.10;2.63;;;;;;;15.35;81.50;100854.13;4991242;28;20889;-72
2022/10/17 01:51:50;;;;;;;12.27;2.88;;;;;;;15.35;81.83;100856.88;4989237;28;20765;-72
2022/10/17 01:54:37;;;;;;;19.90;3.22;;;;;;;15.35;81.77;100859.59;4981070;28;20830;-72
2022/10/17 01:57:06;;;;;;;7.97;2.88;;;;;;;15.34;81.64;100858.78;4987554;28;20837;-72
2022/10/17 01:59:39;;;;;;;15.68;3.25;;;;;;;15.34;81.67;100867.00;4989793;28;20411;-72
2022/10/17 02:02:06;;;;;;;6.07;2.70;;;;;;;15.29;81.61;100866.13;4988318;28;20418;-72
2022/10/17 02:04:32;;;;;;;7.72;2.47;;;;;;;15.26;81.79;100869.38;4991207;28;20406;-72
2022/10/17 02:07:05;;;;;;;3.10;2.53;;;;;;;15.21;81.97;100867.47;4982469;28;20980;-72
2022/10/17 02:09:31;;;;;;;9.48;2.60;;;;;;;15.21;81.72;100872.09;4974398;28;20920;-71
2022/10/17 02:12:31;;;;;;;3.63;2.70;;;;;;;15.20;81.50;100870.44;4989622;28;20414;-72
2022/10/17 02:14:56;;;;;;;18.63;2.90;;;;;;;15.19;81.61;100869.63;4989642;28;20785;-71
2022/10/17 02:17:50;;;;;;;7.53;2.87;;;;;;;15.18;81.65;100867.19;4991319;28;20891;-72
2022/10/17 02:20:31;;;;;;;8.48;2.97;;;;;;;15.17;81.62;100868.25;4991813;28;20426;-72
2022/10/17 02:22:57;;;;;;;11.38;2.85;;;;;;;15.14;81.63;100857.88;4991967;28;20413;-72
2022/10/17 02:25:37;;;;;;;13.07;2.63;;;;;;;15.10;81.74;100859.47;4993660;28;20411;-72
2022/10/17 02:28:05;;;;;;;11.27;2.60;;;;;;;15.08;81.60;100859.75;4980390;28;20400;-72
2022/10/17 02:30:39;;;;;;;12.80;3.10;;;;;;;15.04;81.54;100850.44;4991601;28;20418;-72
2022/10/17 02:33:19;;;;;;;5.35;2.45;;;;;;;15.01;81.64;100860.00;4979225;28;20434;-72
2022/10/17 02:35:51;;;;;;;12.10;2.20;;;;;;;15.04;81.87;100854.00;4988125;28;20746;-72
2022/10/17 02:38:17;;;;;;;16.52;2.90;;;;;;;15.03;81.63;100863.28;4989315;28;20418;-72
2022/10/17 02:40:44;;;;;;;17.52;3.28;;;;;;;15.03;81.40;100865.19;4987008;28;20799;-72
2022/10/17 02:43:10;;;;;;;21.10;3.55;;;;;;;15.02;81.28;100867.06;4989027;28;20499;-72
2022/10/17 02:45:37;;;;;;;16.88;2.90;;;;;;;15.01;81.50;100864.63;4991693;28;20410;-72
2022/10/17 02:48:14;;;;;;;15.13;3.33;;;;;;;15.06;81.24;100865.47;4994448;28;20402;-71
2022/10/17 02:50:53;;;;;;;9.52;2.53;;;;;;;15.04;81.03;100864.94;4991503;28;20419;-72
2022/10/17 02:53:31;;;;;;;12.40;2.55;;;;;;;15.01;81.47;100861.91;4983514;28;20408;-72
2022/10/17 02:56:01;;;;;;;14.20;2.80;;;;;;;15.00;81.03;100860.25;4987244;28;20887;-72
2022/10/17 02:58:30;;;;;;;7.60;2.13;;;;;;;15.03;81.06;100862.44;4989032;28;20835;-72
2022/10/17 03:00:57;;;;;;;10.70;2.22;;;;;;;15.03;80.92;100857.00;4991602;28;20414;-72
2022/10/17 03:03:25;;;;;;;10.20;2.00;;;;;;;15.04;81.01;100862.19;4991327;28;20403;-73
2022/10/17 03:05:51;;;;;;;6.80;2.13;;;;;;;15.04;80.90;100867.66;4992096;28;20885;-71
2022/10/17 03:08:17;;;;;;;11.73;2.63;;;;;;;14.98;81.33;100856.97;4992286;28;20418;-71
2022/10/17 03:10:42;;;;;;;5.00;2.40;;;;;;;14.98;81.22;100860.50;4990818;28;20414;-72
2022/10/17 03:13:07;;;;;;;8.73;2.50;;;;;;;14.97;81.29;100864.34;4993124;28;20495;-72
2022/10/17 03:15:33;;;;;;;10.13;2.27;;;;;;;14.96;81.12;100862.69;4992119;28;20421;-72
2022/10/17 03:17:58;;;;;;;14.10;2.33;;;;;;;14.98;81.12;100871.41;4994223;28;20438;-73
2022/10/17 03:20:23;;;;;;;6.85;2.13;;;;;;;14.96;80.87;100865.41;4989542;28;20404;-72
2022/10/17 03:22:48;;;;;;;10.13;2.27;;;;;;;14.92;80.57;100867.00;4980548;28;20898;-71
2022/10/17 03:25:14;;;;;;;8.27;2.17;;;;;;;14.85;80.41;100866.41;4990014;28;20422;-72
2022/10/17 03:27:39;;;;;;;16.23;2.50;;;;;;;14.83;80.70;100867.78;4990870;28;21043;-72
2022/10/17 03:30:05;;;;;;;6.37;1.97;;;;;;;14.81;81.02;100869.97;4990406;28;20477;-72
2022/10/17 03:32:32;;;;;;;10.32;2.50;;;;;;;14.81;80.59;100867.22;4983414;28;20419;-72
2022/10/17 03:34:57;;;;;;;7.60;2.20;;;;;;;14.80;80.91;100873.75;4981145;28;20411;-72
2022/10/17 03:37:22;;;;;;;10.37;3.13;;;;;;;14.81;80.71;100875.41;4980991;28;20421;-72
2022/10/17 03:39:48;;;;;;;15.47;4.10;;;;;;;14.82;80.81;100877.06;4991621;28;20450;-72
2022/10/17 03:42:13;;;;;;;18.27;4.20;;;;;;;14.85;80.59;100869.16;4992408;28;20430;-72
2022/10/17 03:44:38;;;;;;;5.67;3.73;;;;;;;14.88;80.26;100879.56;4981448;28;20424;-72
2022/10/17 03:47:04;;;;;;;9.73;2.70;;;;;;;14.86;80.14;100886.34;4993730;28;20414;-72
2022/10/17 03:49:29;;;;;;;13.20;2.60;;;;;;;14.84;80.14;100891.25;4993531;28;20406;-72
2022/10/17 03:51:54;;;;;;;10.47;3.10;;;;;;;14.79;80.63;100892.03;4990031;28;20775;-71
2022/10/17 03:54:19;;;;;;;16.40;2.93;;;;;;;14.77;80.83;100888.75;4987120;28;20414;-72
2022/10/17 03:56:45;;;;;;;7.80;2.83;;;;;;;14.74;80.91;100892.00;4981420;28;20466;-73
2022/10/17 03:59:14;;;;;;;10.77;3.00;;;;;;;14.75;80.87;100890.09;4985025;28;20403;-72
2022/10/17 04:01:39;;;;;;;7.10;3.30;;;;;;;14.74;81.03;100899.38;4992725;28;20450;-72
2022/10/17 04:04:04;;;;;;;7.53;2.70;;;;;;;14.71;80.83;100898.00;4993109;28;20415;-72
2022/10/17 04:06:30;;;;;;;13.37;3.50;;;;;;;14.69;80.83;100900.13;4993587;28;20813;-73
2022/10/17 04:08:55;;;;;;;8.40;2.77;;;;;;;14.70;80.74;100909.16;4990734;28;20449;-72
2022/10/17 04:11:20;;;;;;;7.80;2.43;;;;;;;14.68;80.57;100911.31;4984154;28;20890;-72
2022/10/17 04:13:46;;;;;;;9.27;2.77;;;;;;;14.66;80.76;100908.03;4987087;28;20493;-72
2022/10/17 04:16:14;;;;;;;11.23;2.65;;;;;;;14.59;80.42;100900.06;4986280;28;20410;-72
2022/10/17 04:18:40;;;;;;;8.38;2.83;;;;;;;14.57;80.64;100899.50;4985743;28;20402;-72
2022/10/17 04:21:07;;;;;;;19.30;2.95;;;;;;;14.58;80.75;100903.88;4982883;28;20976;-73
2022/10/17 04:23:35;;;;;;;10.10;2.58;;;;;;;14.59;80.60;100912.91;4985276;28;20941;-72
2022/10/17 04:26:02;;;;;;;10.18;2.20;;;;;;;14.54;80.76;100914.50;4991725;28;20406;-72
2022/10/17 04:28:28;;;;;;;8.30;2.05;;;;;;;14.51;80.88;100916.91;4988607;28;20407;-72
2022/10/17 04:31:04;;;;;;;8.10;2.35;;;;;;;14.53;80.30;100917.47;4985621;28;20415;-73
2022/10/17 04:33:30;;;;;;;8.70;2.30;;;;;;;14.54;79.94;100919.13;4990293;28;20417;-73
2022/10/17 04:35:59;;;;;;;7.03;2.65;;;;;;;14.51;80.24;100927.81;4992235;28;20407;-72
2022/10/17 04:38:25;;;;;;;13.02;2.67;;;;;;;14.48;80.54;100920.16;4991609;28;20488;-72
2022/10/17 04:40:50;;;;;;;10.57;2.70;;;;;;;14.50;80.41;100918.00;4990514;28;20497;-72
2022/10/17 04:43:15;;;;;;;22.10;6.37;;;;;;;14.49;80.42;100914.44;4984128;28;20513;-72
2022/10/17 04:45:41;;;;;;;51.17;15.57;;;;;;;14.52;80.25;100921.28;4987581;28;20406;-72
2022/10/17 04:48:06;;;;;;;37.60;16.10;;;;;;;14.51;80.38;100922.38;4991616;28;20461;-73
2022/10/17 04:50:31;;;;;;;34.93;13.33;;;;;;;14.42;80.36;100930.19;4988074;28;20405;-72
2022/10/17 04:52:57;;;;;;;29.90;10.33;;;;;;;14.39;80.20;100935.34;4989727;28;20410;-72
2022/10/17 04:55:22;;;;;;;18.77;5.53;;;;;;;14.40;80.37;100940.53;4986520;28;20971;-73
2022/10/17 04:57:47;;;;;;;18.33;5.70;;;;;;;14.42;80.25;100943.81;4981326;28;20418;-72
2022/10/17 05:00:13;;;;;;;16.83;6.03;;;;;;;14.41;80.26;100944.91;4982581;28;20418;-72
2022/10/17 05:02:38;;;;;;;14.90;5.23;;;;;;;14.40;79.95;100937.81;4990199;28;20501;-73
2022/10/17 05:05:03;;;;;;;17.30;4.30;;;;;;;14.43;79.91;100928.28;4989321;28;21086;-73
2022/10/17 05:07:29;;;;;;;15.63;4.10;;;;;;;14.45;80.06;100929.69;4984825;28;20405;-72
2022/10/17 05:09:54;;;;;;;10.20;3.50;;;;;;;14.41;80.28;100933.19;4973129;28;20410;-72
2022/10/17 05:12:19;;;;;;;12.53;3.23;;;;;;;14.50;80.17;100937.91;4979643;28;20447;-73
2022/10/17 05:14:44;;;;;;;9.10;3.90;;;;;;;14.41;80.18;100935.91;4988051;28;20757;-73
2022/10/17 05:17:10;;;;;;;11.90;2.70;;;;;;;14.38;80.62;100939.16;4987290;28;20417;-74
2022/10/17 05:19:35;;;;;;;8.27;1.83;;;;;;;14.33;80.25;100939.91;4987094;28;20417;-74
2022/10/17 05:22:00;;;;;;;13.07;2.37;;;;;;;14.29;80.34;100932.50;4979421;28;20418;-73
2022/10/17 05:24:25;;;;;;;11.80;2.80;;;;;;;14.23;80.28;100928.88;4990186;28;20398;-73
2022/10/17 05:26:51;;;;;;;14.48;1.98;;;;;;;14.20;80.17;100937.56;4982948;28;20432;-73
2022/10/17 05:29:16;;;;;;;15.03;2.27;;;;;;;14.17;80.23;100931.81;4988123;28;20441;-73
2022/10/17 05:31:42;;;;;;;14.75;2.40;;;;;;;14.18;79.81;100936.19;4982699;28;20912;-73
2022/10/17 05:34:07;;;;;;;10.30;2.33;;;;;;;14.18;79.46;100938.91;4984884;28;20765;-73
2022/10/17 05:36:33;;;;;;;8.07;3.30;;;;;;;14.16;79.62;100941.88;4991697;28;20403;-73
2022/10/17 05:38:59;;;;;;;14.13;2.40;;;;;;;14.16;79.54;100939.16;4985468;28;20408;-73
2022/10/17 05:41:24;;;;;;;9.63;2.20;;;;;;;14.16;79.49;100944.63;4979495;28;20419;-73
2022/10/17 05:43:49;;;;;;;9.40;2.33;;;;;;;14.17;79.73;100949.00;4989820;28;20426;-73
2022/10/17 05:46:15;;;;;;;8.47;1.90;;;;;;;14.13;79.96;100942.41;4990073;28;20405;-73
2022/10/17 05:48:40;;;;;;;22.15;2.97;;;;;;;14.10;79.87;100962.00;4983353;28;20416;-72
2022/10/17 05:51:08;;;;;;;13.77;2.27;;;;;;;14.09;80.00;100954.91;4988479;28;20916;-72
2022/10/17 05:53:35;;;;;;;4.60;2.10;;;;;;;14.10;79.81;100959.28;4984807;28;20493;-72
2022/10/17 05:56:03;;;;;;;8.57;2.35;;;;;;;14.12;79.77;100965.31;4984548;28;20510;-72
2022/10/17 05:58:28;;;;;;;9.05;2.22;;;;;;;14.13;79.63;100963.41;4983611;28;20406;-73
2022/10/17 06:00:58;;;;;;;13.50;2.40;;;;;;;14.14;79.63;100967.75;4990397;28;20405;-73
2022/10/17 06:03:23;;;;;;;4.53;1.77;;;;;;;14.13;79.64;100964.22;4978797;28;20460;-73
2022/10/17 06:05:49;;;;;;;12.70;2.83;;;;;;;14.15;79.81;100966.69;4985621;28;20767;-72
2022/10/17 06:08:15;;;;;;;7.23;2.33;;;;;;;14.15;79.78;100963.97;4984900;28;20730;-72
2022/10/17 06:10:40;;;;;;;5.57;2.63;;;;;;;14.15;79.88;100958.50;4983603;28;20801;-72
2022/10/17 06:13:06;;;;;;;10.00;2.70;;;;;;;14.17;79.94;100973.53;4990374;28;20501;-72
2022/10/17 06:15:31;;;;;;;6.47;2.90;;;;;;;14.18;80.20;100977.91;4989132;28;20765;-74
2022/10/17 06:17:56;;;;;;;9.77;2.67;;;;;;;14.20;79.92;100980.34;4991654;28;20452;-73
2022/10/17 06:20:22;;;;;;;9.40;3.33;;;;;;;14.20;79.79;100988.53;4983044;28;20480;-72
2022/10/17 06:22:47;;;;;;;6.30;3.23;;;;;;;14.22;80.01;100986.41;4985877;28;20425;-73
2022/10/17 06:25:12;;;;;;;8.40;3.13;;;;;;;14.20;80.33;100991.25;4974833;28;20894;-73
2022/10/17 06:27:37;;;;;;;12.40;3.20;;;;;;;14.19;80.16;100992.38;4981559;28;20460;-72
2022/10/17 06:30:03;;;;;;;10.63;2.70;;;;;;;14.23;80.09;100990.75;4986674;28;20426;-73
2022/10/17 06:32:29;;;;;;;7.65;2.67;;;;;;;14.21;79.94;100999.19;4991032;28;20418;-73
2022/10/17 06:34:54;;;;;;;19.67;3.30;;;;;;;14.23;80.30;100994.31;4989583;28;20904;-72
2022/10/17 06:37:19;;;;;;;8.80;2.78;;;;;;;14.26;80.34;101003.91;4989111;28;20486;-73
2022/10/17 06:39:44;;;;;;;9.90;2.80;;;;;;;14.31;80.36;101004.75;4984778;28;20774;-72
2022/10/17 06:42:10;;;;;;;15.17;3.60;;;;;;;14.27;80.68;101016.44;4985776;28;20504;-73
2022/10/17 06:44:35;;;;;;;5.32;3.03;;;;;;;14.26;80.81;101018.31;4982338;28;20450;-72
2022/10/17 06:47:00;;;;;;;6.03;3.20;;;;;;;14.29;81.21;101017.81;4982482;28;21280;-73
2022/10/17 06:49:26;;;;;;;6.53;2.70;;;;;;;14.32;81.13;101017.31;4983803;28;20410;-72
2022/10/17 06:51:52;;;;;;;13.23;3.22;;;;;;;14.36;81.08;101021.19;4983286;28;20899;-72
2022/10/17 06:54:17;;;;;;;10.68;3.20;;;;;;;14.38;80.97;101016.34;4982456;28;20407;-73
2022/10/17 06:56:42;;;;;;;7.37;3.70;;;;;;;14.45;81.25;101016.97;4966070;28;20414;-74
2022/10/17 06:59:09;;;;;;;6.20;3.60;;;;;;;14.53;81.31;101019.22;4984163;28;21619;-72
2022/10/17 07:01:34;;;;;;;12.80;2.97;;;;;;;14.60;81.31;101018.16;4985631;28;20417;-73
2022/10/17 07:04:00;;;;;;;4.20;2.83;;;;;;;14.66;81.25;101026.16;4983185;28;20402;-73
2022/10/17 07:06:25;;;;;;;6.80;3.17;;;;;;;14.69;81.34;101019.34;4992391;28;20901;-73
2022/10/17 07:08:51;;;;;;;8.43;4.00;;;;;;;14.69;81.33;101030.25;4986722;28;20411;-73
2022/10/17 07:11:19;;;;;;;9.20;5.00;;;;;;;14.79;81.87;101036.63;4988228;28;20421;-73
2022/10/17 07:13:46;;;;;;;10.40;3.38;;;;;;;14.83;82.06;101034.22;4989807;28;20402;-73
2022/10/17 07:16:13;;;;;;;7.32;3.55;;;;;;;14.85;82.03;101037.53;4985807;28;20416;-73
2022/10/17 07:18:39;;;;;;;9.10;4.00;;;;;;;14.86;82.12;101045.44;4983525;28;20475;-73
2022/10/17 07:21:05;;;;;;;4.15;3.55;;;;;;;14.90;82.12;101056.66;4987801;28;20410;-73
2022/10/17 07:23:30;;;;;;;10.00;3.97;;;;;;;14.90;82.26;101054.75;4985097;28;20417;-73
2022/10/17 07:26:01;;;;;;;16.93;4.50;;;;;;;14.88;82.15;101050.66;4985337;28;20548;-73
2022/10/17 07:28:27;;;;;;;5.53;3.40;;;;;;;14.90;82.36;101062.94;4987770;28;20460;-73
2022/10/17 07:30:53;;;;;;;10.88;3.45;;;;;;;14.89;82.48;101063.19;4981338;28;20477;-73
2022/10/17 07:33:18;;;;;;;8.82;3.30;;;;;;;14.88;82.97;101053.38;4979413;28;20428;-73
2022/10/17 07:35:43;;;;;;;5.20;2.57;;;;;;;14.88;82.98;101059.66;4985467;28;20434;-72
2022/10/17 07:38:09;;;;;;;4.97;3.03;;;;;;;14.95;83.04;101067.66;4983496;28;20399;-72
2022/10/17 07:40:34;;;;;;;5.32;2.80;;;;;;;14.97;82.83;101057.28;4984648;28;20464;-73
2022/10/17 07:42:59;;;;;;;3.73;3.20;;;;;;;15.02;82.85;101073.69;4992720;28;20432;-72
2022/10/17 07:45:26;;;;;;;4.23;2.93;;;;;;;15.06;82.91;101077.56;4988269;28;20434;-73
2022/10/17 07:47:56;;;;;;;3.13;2.38;;;;;;;15.08;82.94;101068.03;4982536;28;20459;-74
2022/10/17 07:50:21;;;;;;;5.45;3.42;;;;;;;15.14;82.96;101074.38;4984922;28;20426;-73
2022/10/17 07:52:46;;;;;;;4.70;2.73;;;;;;;15.16;83.18;101074.91;4982684;28;20403;-73
2022/10/17 07:55:12;;;;;;;3.35;2.72;;;;;;;15.18;83.30;101080.94;4982680;28;20897;-72
2022/10/17 07:57:39;;;;;;;7.27;3.10;;;;;;;15.19;83.31;101081.75;4983068;28;20408;-73
2022/10/17 08:00:05;;;;;;;4.90;2.40;;;;;;;15.24;83.21;101090.84;4984358;28;20450;-73
2022/10/17 08:02:30;;;;;;;6.93;2.28;;;;;;;15.28;83.24;101080.22;4983437;28;20430;-72
2022/10/17 08:04:56;;;;;;;5.50;2.77;;;;;;;15.36;83.42;101090.66;4985766;28;20766;-72
2022/10/17 08:07:21;;;;;;;3.97;2.40;;;;;;;15.48;83.14;101089.41;4987004;28;20407;-72
2022/10/17 08:09:47;;;;;;;4.90;2.63;;;;;;;15.58;82.73;101091.38;4986157;28;20402;-72
2022/10/17 08:12:16;;;;;;;5.57;2.30;;;;;;;15.57;82.98;101089.75;4987911;28;20412;-73
2022/10/17 08:14:42;;;;;;;7.90;2.90;;;;;;;15.61;83.24;101096.31;4987118;28;20484;-72
2022/10/17 08:17:07;;;;;;;8.05;2.75;;;;;;;15.67;83.47;101098.03;4990607;28;20421;-73
2022/10/17 08:19:32;;;;;;;6.18;3.58;;;;;;;15.74;83.56;101098.59;4988582;28;20761;-72
2022/10/17 08:21:58;;;;;;;6.17;3.17;;;;;;;15.75;83.72;101086.59;4988484;28;20454;-72
2022/10/17 08:24:24;;;;;;;8.33;3.53;;;;;;;15.81;83.88;101091.00;4985955;28;20410;-72
2022/10/17 08:26:52;;;;;;;3.45;3.05;;;;;;;15.86;83.92;101082.84;4990971;28;20441;-73
2022/10/17 08:29:18;;;;;;;9.67;3.37;;;;;;;15.93;84.00;101093.53;4979531;28;20400;-72
2022/10/17 08:31:43;;;;;;;4.73;3.00;;;;;;;16.00;84.23;101094.94;4982451;28;20429;-72
2022/10/17 08:34:08;;;;;;;6.72;4.00;;;;;;;16.08;84.12;101097.16;4988685;28;20418;-73
2022/10/17 08:36:33;;;;;;;13.87;6.17;;;;;;;16.17;84.35;101099.41;4995919;28;20399;-72
2022/10/17 08:38:59;;;;;;;6.00;5.03;;;;;;;16.21;84.28;101106.78;4988457;28;20405;-72
2022/10/17 08:41:30;;;;;;;4.40;3.70;;;;;;;16.29;84.38;101114.50;4984796;28;20422;-73
2022/10/17 08:44:11;;;;;;;6.50;3.70;;;;;;;16.41;84.03;101109.63;4990576;28;20427;-73
2022/10/17 08:46:40;;;;;;;6.72;4.05;;;;;;;16.49;83.88;101108.28;4977457;28;20906;-72
2022/10/17 08:49:14;;;;;;;9.18;5.97;;;;;;;16.54;84.17;101113.78;4990776;28;20449;-73
2022/10/17 08:51:48;;;;;;;8.17;3.40;;;;;;;16.62;84.12;101104.25;4989496;28;20903;-72
2022/10/17 08:54:18;;;;;;;8.13;3.30;;;;;;;16.69;83.89;101110.31;4990545;28;20489;-74
2022/10/17 08:56:47;;;;;;;5.47;2.83;;;;;;;16.75;83.76;101103.75;4986973;28;20408;-75
2022/10/17 08:59:17;;;;;;;4.35;2.95;;;;;;;16.86;83.41;101098.00;4987201;28;20415;-72
2022/10/17 09:01:58;;;;;;;4.60;2.70;;;;;;;16.94;83.00;101097.50;4990109;28;20418;-73
2022/10/17 09:04:52;;;;;;;9.80;4.80;;;;;;;17.01;82.94;101097.22;4987531;28;20900;-73
2022/10/17 09:07:23;;;;;;;9.33;4.80;;;;;;;17.08;82.88;101104.09;4989407;28;20766;-73
2022/10/17 09:09:59;;;;;;;3.75;2.75;;;;;;;17.20;82.64;101105.72;4972507;28;20417;-77
2022/10/17 09:12:30;;;;;;;3.58;3.15;;;;;;;17.34;82.39;101101.34;4993898;28;20477;-76
2022/10/17 09:15:26;;;;;;;7.82;3.05;;;;;;;17.48;81.65;101108.75;4979863;28;20429;-75
2022/10/17 09:17:54;;;;;;;6.95;3.13;;;;;;;17.62;81.47;101111.78;4994583;28;20410;-75
2022/10/17 09:20:25;;;;;;;6.57;2.80;;;;;;;17.71;81.13;101118.38;4990472;28;20446;-75
2022/10/17 09:23:01;;;;;;;4.20;2.70;;;;;;;17.78;80.70;101109.84;4982344;28;20929;-75
2022/10/17 09:25:27;;;;;;;7.10;2.85;;;;;;;17.84;80.13;101112.31;4989120;28;20495;-75
2022/10/17 09:28:09;;;;;;;6.05;2.65;;;;;;;18.04;79.51;101111.44;4989176;28;20409;-75
2022/10/17 09:30:42;;;;;;;6.53;3.00;;;;;;;18.19;78.71;101113.31;4963680;28;20861;-75
2022/10/17 09:33:19;;;;;;;6.07;2.63;;;;;;;18.30;78.28;101103.94;4987343;28;20762;-75
2022/10/17 09:35:46;;;;;;;8.93;3.45;;;;;;;18.47;77.76;101104.44;4988153;28;20426;-75
2022/10/17 09:38:21;;;;;;;5.22;2.25;;;;;;;19.00;76.23;101111.81;4978176;28;20407;-75
2022/10/17 09:40:53;;;;;;;5.05;2.17;;;;;;;19.65;74.18;101113.28;4989059;28;21001;-75
2022/10/17 09:43:19;;;;;;;5.38;2.30;;;;;;;20.44;71.62;101114.66;4986747;28;20680;-75
2022/10/17 09:46:08;;;;;;;7.78;2.55;;;;;;;21.31;68.13;101111.47;4973377;28;20414;-75
2022/10/17 09:48:45;;;;;;;4.18;2.00;;;;;;;21.74;65.91;101105.50;4988734;28;20406;-75
2022/10/17 09:51:11;;;;;;;6.22;3.03;;;;;;;22.05;64.33;101097.50;4984345;28;20412;-75
2022/10/17 09:53:41;;;;;;;5.53;1.73;;;;;;;22.86;61.78;101103.25;4985792;28;20418;-75
2022/10/17 09:56:12;;;;;;;1.63;1.50;;;;;;;23.89;58.75;101106.81;4988429;28;20424;-75
2022/10/17 09:58:47;;;;;;;4.00;1.88;;;;;;;24.78;56.49;101113.66;4991213;28;20407;-75
2022/10/17 10:01:22;;;;;;;2.22;1.80;;;;;;;25.12;55.87;101120.41;4984644;28;20418;-75
2022/10/17 10:04:06;;;;;;;2.07;1.80;;;;;;;25.78;54.45;101113.47;4987344;28;20797;-75
2022/10/17 10:06:32;;;;;;;4.60;1.83;;;;;;;26.59;51.91;101111.34;4973304;28;20788;-75
2022/10/17 10:08:57;;;;;;;5.67;1.47;;;;;;;27.14;50.34;101121.44;4988222;28;20493;-75
2022/10/17 10:11:42;;;;;;;2.90;1.33;;;;;;;27.42;49.29;101130.03;4986616;28;20940;-75
2022/10/17 10:14:18;;;;;;;6.50;1.70;;;;;;;27.44;48.84;101117.44;4989224;28;20406;-76
2022/10/17 10:16:44;;;;;;;3.20;1.50;;;;;;;27.77;47.04;101123.00;4990675;28;20815;-75
2022/10/17 10:19:29;;;;;;;6.20;2.15;;;;;;;28.49;44.87;101127.03;4984242;28;20406;-75
2022/10/17 10:21:57;;;;;;;3.65;1.73;;;;;;;28.84;43.66;101129.03;4984735;28;20430;-75
2022/10/17 10:24:24;;;;;;;9.32;2.03;;;;;;;28.13;44.94;101127.84;4990759;28;20446;-76
2022/10/17 10:26:52;;;;;;;4.32;1.73;;;;;;;26.00;49.25;101123.53;4982235;28;20444;-76
2022/10/17 10:29:21;;;;;;;5.72;2.20;;;;;;;24.38;54.07;101133.44;4980873;28;20752;-75
2022/10/17 10:31:46;;;;;;;2.40;1.50;;;;;;;23.29;57.28;101132.09;4989802;28;20403;-76
2022/10/17 10:34:18;;;;;;;1.55;1.20;;;;;;;22.67;59.17;101120.81;4985127;28;20411;-76
2022/10/17 10:36:45;;;;;;;6.10;1.55;;;;;;;22.38;60.22;101123.06;4991591;28;20404;-75
2022/10/17 10:39:35;;;;;;;4.40;1.75;;;;;;;22.20;60.53;101123.97;5002576;28;20406;-76
2022/10/17 10:42:04;;;;;;;5.40;1.73;;;;;;;22.05;61.36;101135.31;4990431;28;20505;-75
2022/10/17 10:44:31;;;;;;;5.15;2.33;;;;;;;21.93;61.53;101133.03;4980777;28;21038;-75
2022/10/17 10:47:17;;;;;;;3.23;1.70;;;;;;;21.81;62.09;101129.91;4991390;28;20438;-75
2022/10/17 10:49:44;;;;;;;3.00;1.58;;;;;;;21.78;62.47;101124.19;4983354;28;20554;-75
2022/10/17 10:52:29;;;;;;;3.83;1.70;;;;;;;21.76;62.35;101123.69;4988970;28;20407;-75
2022/10/17 10:55:02;;;;;;;4.55;1.50;;;;;;;21.72;62.71;101123.47;4988981;28;21732;-75
2022/10/17 10:57:32;;;;;;;2.95;1.80;;;;;;;21.63;63.10;101123.38;4990963;28;20791;-76
2022/10/17 11:00:07;;;;;;;5.07;1.70;;;;;;;21.56;63.59;101124.88;4971955;28;20501;-75
2022/10/17 11:02:39;;;;;;;5.15;1.50;;;;;;;21.60;63.72;101129.44;4983561;28;20430;-76
2022/10/17 11:05:08;;;;;;;4.57;1.55;;;;;;;21.56;63.99;101128.44;4988472;28;20417;-76
2022/10/17 11:07:45;;;;;;;3.42;1.38;;;;;;;21.51;64.34;101127.69;4985140;28;20442;-76
2022/10/17 11:10:24;;;;;;;1.35;1.30;;;;;;;21.50;64.62;101137.94;4988542;28;20488;-76
2022/10/17 11:12:53;;;;;;;5.70;1.80;;;;;;;21.44;64.43;101138.31;4970074;28;20440;-76
2022/10/17 11:15:25;;;;;;;1.60;1.50;;;;;;;21.39;64.75;101141.13;4993792;28;20410;-75
2022/10/17 11:18:01;;;;;;;3.47;1.42;;;;;;;21.34;64.58;101144.78;4990878;28;20912;-75
2022/10/17 11:20:39;;;;;;;4.05;1.77;;;;;;;21.35;64.53;101148.38;4988125;28;20422;-75
2022/10/17 11:23:23;;;;;;;4.68;2.05;;;;;;;21.39;64.93;101150.22;4969526;28;20454;-75
2022/10/17 11:25:53;;;;;;;5.57;1.90;;;;;;;21.37;65.14;101146.16;4992275;28;20399;-74
2022/10/17 11:28:21;;;;;;;2.33;1.58;;;;;;;21.37;65.42;101143.38;4990848;28;20482;-77
2022/10/17 11:30:50;;;;;;;1.83;1.50;;;;;;;21.36;65.73;101148.06;4992086;28;20493;-75